Time;durP1;ratioP1;P1;durP2;ratioP2;P2;SDS_P1;SDS_P2;PMS_P1;PMS_P2;Temp;Humidity;BMP_temperature;BMP_pressure;BME280_temperature;BME280_humidity;BME280_pressure;Samples;Min_cycle;Max_cycle;Signal;HPM_P1;HPM_P2
2023/01/06 00:01:03;;;;;;;;;;;10.50;99.90;;;;;;5071041;28;19920;-62
2023/01/06 00:03:31;;;;;;;;;;;10.50;99.90;;;;;;5072153;28;19927;-62
2023/01/06 00:05:59;;;;;;;;;;;10.60;99.90;;;;;;5071812;28;19920;-62
2023/01/06 00:08:27;;;;;;;;;;;10.60;99.90;;;;;;5083494;28;20376;-62
2023/01/06 00:10:54;;;;;;;;;;;10.70;99.90;;;;;;5091315;28;19920;-62
2023/01/06 00:13:22;;;;;;;;;;;10.60;99.90;;;;;;5107511;28;19926;-62
2023/01/06 00:15:51;;;;;;;;;;;10.70;99.90;;;;;;5091785;28;19928;-62
2023/01/06 00:18:19;;;;;;;;;;;10.70;99.90;;;;;;5091758;28;19920;-63
2023/01/06 00:20:47;;;;;;;;;;;10.60;99.90;;;;;;5074599;28;19920;-62
2023/01/06 00:23:14;;;;;;;;;;;10.60;99.90;;;;;;5071607;28;20375;-63
2023/01/06 00:25:48;;;;;;;;;;;10.60;99.90;;;;;;5071453;28;19928;-63
2023/01/06 00:28:16;;;;;;;;;;;10.60;99.90;;;;;;5091803;28;19924;-63
2023/01/06 00:30:44;;;;;;;;;;;10.60;99.90;;;;;;5091151;28;19942;-63
2023/01/06 00:33:13;;;;;;;;;;;10.60;99.90;;;;;;5091409;28;20391;-62
2023/01/06 00:35:41;;;;;;;;;;;10.40;99.90;;;;;;5091625;28;19923;-63
2023/01/06 00:38:09;;;;;;;;;;;10.30;99.90;;;;;;5082515;28;19920;-61
2023/01/06 00:40:37;;;;;;;;;;;10.30;99.90;;;;;;5092583;28;20023;-62
2023/01/06 00:43:04;;;;;;;;;;;10.20;99.90;;;;;;5092519;28;20385;-61
2023/01/06 00:45:32;;;;;;;;;;;10.10;99.90;;;;;;5092500;28;19920;-62
2023/01/06 00:48:00;;;;;;;;;;;10.20;99.90;;;;;;5105923;28;19924;-62
2023/01/06 00:50:29;;;;;;;;;;;10.30;99.90;;;;;;5112044;28;20018;-62
2023/01/06 00:52:56;;;;;;;;;;;10.40;99.90;;;;;;5108923;28;19923;-62
2023/01/06 00:55:24;;;;;;;;;;;10.40;99.90;;;;;;5071175;28;20007;-62
2023/01/06 00:57:52;;;;;;;;;;;10.50;99.90;;;;;;5069947;28;19966;-61
2023/01/06 01:00:20;;;;;;;;;;;10.50;99.90;;;;;;5070554;28;20384;-62
2023/01/06 01:02:48;;;;;;;;;;;10.60;99.90;;;;;;5089398;28;19924;-62
2023/01/06 01:05:16;;;;;;;;;;;10.50;99.90;;;;;;5095431;28;19924;-62
2023/01/06 01:07:45;;;;;;;;;;;10.30;99.90;;;;;;5095307;28;19974;-62
2023/01/06 01:10:12;;;;;;;;;;;10.20;99.90;;;;;;5091003;28;19935;-62
2023/01/06 01:12:40;;;;;;;;;;;10.30;99.90;;;;;;5074451;28;19921;-62
2023/01/06 01:15:08;;;;;;;;;;;10.40;99.90;;;;;;5082594;28;19919;-62
2023/01/06 01:17:36;;;;;;;;;;;10.40;99.90;;;;;;5095154;28;19955;-62
2023/01/06 01:20:04;;;;;;;;;;;10.30;99.90;;;;;;5094345;28;19961;-62
2023/01/06 01:22:32;;;;;;;;;;;10.40;99.90;;;;;;5094648;28;19934;-62
2023/01/06 01:25:01;;;;;;;;;;;10.50;99.90;;;;;;5094822;28;20011;-62
2023/01/06 01:27:29;;;;;;;;;;;10.40;99.90;;;;;;5089553;28;19925;-62
2023/01/06 01:29:56;;;;;;;;;;;10.20;99.90;;;;;;5081354;28;20077;-62
2023/01/06 01:32:24;;;;;;;;;;;10.10;99.90;;;;;;5094946;28;19959;-62
2023/01/06 01:34:52;;;;;;;;;;;10.00;99.90;;;;;;5094901;28;19959;-62
2023/01/06 01:37:19;;;;;;;;;;;10.00;99.90;;;;;;5094584;28;19920;-62
2023/01/06 01:39:48;;;;;;;;;;;10.00;99.90;;;;;;5093486;28;19925;-62
2023/01/06 01:42:18;;;;;;;;;;;10.00;99.90;;;;;;5094213;28;19920;-62
2023/01/06 01:44:51;;;;;;;;;;;10.20;99.90;;;;;;5086880;28;19921;-62
2023/01/06 01:47:21;;;;;;;;;;;10.20;99.90;;;;;;5088290;28;20464;-62
2023/01/06 01:49:51;;;;;;;;;;;10.20;99.90;;;;;;5093791;28;20020;-62
2023/01/06 01:52:19;;;;;;;;;;;10.10;99.90;;;;;;5094163;28;20014;-62
2023/01/06 01:54:48;;;;;;;;;;;10.30;99.90;;;;;;5094215;28;19920;-63
2023/01/06 01:57:20;;;;;;;;;;;10.40;99.90;;;;;;5094453;28;20014;-62
2023/01/06 01:59:48;;;;;;;;;;;10.50;99.90;;;;;;5093538;28;19924;-62
2023/01/06 02:02:16;;;;;;;;;;;10.50;99.90;;;;;;5082129;28;20509;-62
2023/01/06 02:04:47;;;;;;;;;;;10.40;99.90;;;;;;5072632;28;20003;-63
2023/01/06 02:07:15;;;;;;;;;;;10.40;99.90;;;;;;5086631;28;19927;-62
2023/01/06 02:09:45;;;;;;;;;;;10.40;99.90;;;;;;5093027;28;20027;-62
2023/01/06 02:12:13;;;;;;;;;;;10.50;99.90;;;;;;5093625;28;20015;-63
2023/01/06 02:14:42;;;;;;;;;;;10.50;99.90;;;;;;5093729;28;19924;-62
2023/01/06 02:17:15;;;;;;;;;;;10.60;99.90;;;;;;5093725;28;20376;-62
2023/01/06 02:19:59;;;;;;;;;;;10.70;99.90;;;;;;5077203;28;19927;-62
2023/01/06 02:22:35;;;;;;;;;;;10.80;99.90;;;;;;5073531;28;19920;-62
2023/01/06 02:25:22;;;;;;;;;;;10.80;99.90;;;;;;5084793;28;19920;-62
2023/01/06 02:28:07;;;;;;;;;;;10.90;99.90;;;;;;5093944;28;20006;-62
2023/01/06 02:31:02;;;;;;;;;;;10.80;99.90;;;;;;5081761;28;19924;-63
2023/01/06 02:33:32;;;;;;;;;;;10.70;99.90;;;;;;5093246;28;19928;-63
2023/01/06 02:36:06;;;;;;;;;;;10.70;99.90;;;;;;5093069;28;19926;-63
2023/01/06 02:38:40;;;;;;;;;;;10.70;99.90;;;;;;5100541;28;19956;-62
2023/01/06 02:41:12;;;;;;;;;;;10.60;99.90;;;;;;5092173;28;20380;-64
2023/01/06 02:43:45;;;;;;;;;;;10.50;99.90;;;;;;5093351;28;20355;-62
2023/01/06 02:46:20;;;;;;;;;;;10.50;99.90;;;;;;5093371;28;19989;-62
2023/01/06 02:48:53;;;;;;;;;;;10.40;99.90;;;;;;5093357;28;19920;-62
2023/01/06 02:51:23;;;;;;;;;;;10.40;99.90;;;;;;5092806;28;19926;-62
2023/01/06 02:53:55;;;;;;;;;;;10.40;99.90;;;;;;5083505;28;19924;-63
2023/01/06 02:56:25;;;;;;;;;;;10.40;99.90;;;;;;5093312;28;19926;-62
2023/01/06 02:58:55;;;;;;;;;;;10.50;99.90;;;;;;5093158;28;20018;-63
2023/01/06 03:01:26;;;;;;;;;;;10.50;99.90;;;;;;5092273;28;19927;-62
2023/01/06 03:03:57;;;;;;;;;;;10.50;99.90;;;;;;5093155;28;19920;-62
2023/01/06 03:06:26;;;;;;;;;;;10.60;99.90;;;;;;5093214;28;20015;-62
2023/01/06 03:08:54;;;;;;;;;;;10.60;99.90;;;;;;5092265;28;20022;-62
2023/01/06 03:11:24;;;;;;;;;;;10.70;99.90;;;;;;5089993;28;20393;-62
2023/01/06 03:13:55;;;;;;;;;;;10.60;99.90;;;;;;5093636;28;20273;-62
2023/01/06 03:16:22;;;;;;;;;;;10.60;99.90;;;;;;5093438;28;19959;-62
2023/01/06 03:18:51;;;;;;;;;;;10.70;99.90;;;;;;5093823;28;19927;-61
2023/01/06 03:21:22;;;;;;;;;;;10.60;99.90;;;;;;5093467;28;19956;-62
2023/01/06 03:23:50;;;;;;;;;;;10.70;99.90;;;;;;5091662;28;20326;-62
2023/01/06 03:26:17;;;;;;;;;;;10.70;99.90;;;;;;5088486;28;20030;-61
2023/01/06 03:28:45;;;;;;;;;;;10.70;99.90;;;;;;5072416;28;19974;-62
2023/01/06 03:31:16;;;;;;;;;;;10.70;99.90;;;;;;5082097;28;19923;-63
2023/01/06 03:33:50;;;;;;;;;;;10.70;99.90;;;;;;5107040;28;19931;-62
2023/01/06 03:36:27;;;;;;;;;;;10.70;99.90;;;;;;5114643;28;20292;-62
2023/01/06 03:38:59;;;;;;;;;;;10.70;99.90;;;;;;5098055;28;19924;-62
2023/01/06 03:43:10;;;;;;;;;;;10.60;99.90;;;;;;5092220;28;19932;-62
2023/01/06 03:44:23;;;;;;;;;;;10.60;99.90;;;;;;5080700;28;19979;-62
2023/01/06 03:46:52;;;;;;;;;;;10.50;99.90;;;;;;5073251;28;20011;-62
2023/01/06 03:49:22;;;;;;;;;;;10.40;99.90;;;;;;5072727;28;20400;-63
2023/01/06 03:51:54;;;;;;;;;;;10.40;99.90;;;;;;5090501;28;19930;-62
2023/01/06 03:54:26;;;;;;;;;;;10.30;99.90;;;;;;5112803;28;19930;-62
2023/01/06 03:56:57;;;;;;;;;;;10.30;99.90;;;;;;5113173;28;19919;-62
2023/01/06 03:59:26;;;;;;;;;;;10.20;99.90;;;;;;5112844;28;19920;-62
2023/01/06 04:01:53;;;;;;;;;;;10.20;99.90;;;;;;5077033;28;20019;-62
2023/01/06 04:04:21;;;;;;;;;;;10.10;99.90;;;;;;5072446;28;19921;-62
2023/01/06 04:06:50;;;;;;;;;;;10.10;99.90;;;;;;5072899;28;20019;-62
2023/01/06 04:09:18;;;;;;;;;;;10.10;99.90;;;;;;5091575;28;19920;-62
2023/01/06 04:14:31;;;;;;;;;;;10.20;99.90;;;;;;5092280;28;19927;-62
2023/01/06 04:16:59;;;;;;;;;;;10.30;99.90;;;;;;5090845;28;20039;-62
2023/01/06 04:19:26;;;;;;;;;;;10.30;99.90;;;;;;5071654;28;20381;-63
2023/01/06 04:21:55;;;;;;;;;;;10.40;99.90;;;;;;5071262;28;19975;-62
2023/01/06 04:24:23;;;;;;;;;;;10.50;99.90;;;;;;5072384;28;19920;-62
2023/01/06 04:26:51;;;;;;;;;;;10.60;99.90;;;;;;5073290;28;19921;-62
2023/01/06 04:29:18;;;;;;;;;;;10.60;99.90;;;;;;5073096;28;19930;-63
2023/01/06 04:31:48;;;;;;;;;;;10.60;99.90;;;;;;5094645;28;19955;-63
2023/01/06 04:34:15;;;;;;;;;;;10.50;99.90;;;;;;5103945;28;20403;-63
2023/01/06 04:36:43;;;;;;;;;;;10.50;99.90;;;;;;5075571;28;19931;-63
2023/01/06 04:39:12;;;;;;;;;;;10.50;99.90;;;;;;5094304;28;19924;-62
2023/01/06 04:41:40;;;;;;;;;;;10.50;99.90;;;;;;5076449;28;20115;-62
2023/01/06 04:44:07;;;;;;;;;;;10.50;99.90;;;;;;5076748;28;19920;-62
2023/01/06 04:46:35;;;;;;;;;;;10.50;99.90;;;;;;5088169;28;19950;-62
2023/01/06 04:49:03;;;;;;;;;;;10.50;99.90;;;;;;5095588;28;20321;-63
2023/01/06 04:51:31;;;;;;;;;;;10.50;99.90;;;;;;5088940;28;19931;-63
2023/01/06 04:53:58;;;;;;;;;;;10.60;99.90;;;;;;5075020;28;19924;-63
2023/01/06 04:56:27;;;;;;;;;;;10.60;99.90;;;;;;5075049;28;19943;-63
2023/01/06 04:58:55;;;;;;;;;;;10.60;99.90;;;;;;5075082;28;19926;-63
2023/01/06 05:01:23;;;;;;;;;;;10.60;99.90;;;;;;5074347;28;19927;-63
2023/01/06 05:03:51;;;;;;;;;;;10.70;99.90;;;;;;5074698;28;20381;-62
2023/01/06 05:06:20;;;;;;;;;;;10.70;99.90;;;;;;5087973;28;20389;-63
2023/01/06 05:08:47;;;;;;;;;;;10.70;99.90;;;;;;5093139;28;19920;-62
2023/01/06 05:11:16;;;;;;;;;;;10.60;99.90;;;;;;5096363;28;19924;-62
2023/01/06 05:13:45;;;;;;;;;;;10.60;99.90;;;;;;5098830;28;19920;-62
2023/01/06 05:16:15;;;;;;;;;;;10.70;99.90;;;;;;5114140;28;19947;-62
2023/01/06 05:18:43;;;;;;;;;;;10.70;99.90;;;;;;5094166;28;19920;-63
2023/01/06 05:21:11;;;;;;;;;;;10.80;99.90;;;;;;5094189;28;19974;-63
2023/01/06 05:23:39;;;;;;;;;;;10.80;99.90;;;;;;5094820;28;19920;-63
2023/01/06 05:26:07;;;;;;;;;;;10.90;99.90;;;;;;5083940;28;20011;-63
2023/01/06 05:28:35;;;;;;;;;;;10.90;99.90;;;;;;5080773;28;20042;-63
2023/01/06 05:31:05;;;;;;;;;;;10.90;99.90;;;;;;5080149;28;19923;-63
2023/01/06 05:33:33;;;;;;;;;;;10.90;99.90;;;;;;5103038;28;19977;-62
2023/01/06 05:36:01;;;;;;;;;;;10.80;99.90;;;;;;5106842;28;20014;-62
2023/01/06 05:38:29;;;;;;;;;;;10.90;99.90;;;;;;5103045;28;19920;-63
2023/01/06 05:41:00;;;;;;;;;;;10.90;99.90;;;;;;5093091;28;19927;-63
2023/01/06 05:43:28;;;;;;;;;;;11.00;99.90;;;;;;5108807;22;19934;-67
2023/01/06 05:45:56;;;;;;;;;;;11.00;99.90;;;;;;5073658;28;20015;-67
2023/01/06 05:48:26;;;;;;;;;;;11.00;99.90;;;;;;5073662;28;20003;-67
2023/01/06 05:50:59;;;;;;;;;;;10.90;99.90;;;;;;5073730;28;19920;-66
2023/01/06 05:53:29;;;;;;;;;;;10.90;99.90;;;;;;5055815;28;19925;-66
2023/01/06 05:55:58;;;;;;;;;;;11.00;99.90;;;;;;5053625;28;19925;-67
2023/01/06 05:58:26;;;;;;;;;;;10.90;99.90;;;;;;5053988;28;19948;-66
2023/01/06 06:00:54;;;;;;;;;;;10.70;99.90;;;;;;5070804;28;20338;-66
2023/01/06 06:03:22;;;;;;;;;;;10.60;99.90;;;;;;5073559;28;19920;-67
2023/01/06 06:05:51;;;;;;;;;;;10.50;99.90;;;;;;5073697;28;19921;-66
2023/01/06 06:08:18;;;;;;;;;;;10.50;99.90;;;;;;5073217;28;20403;-66
2023/01/06 06:10:46;;;;;;;;;;;10.60;99.90;;;;;;5059826;28;19920;-66
2023/01/06 06:13:14;;;;;;;;;;;10.70;99.90;;;;;;5053625;28;20027;-66
2023/01/06 06:15:42;;;;;;;;;;;10.60;99.90;;;;;;5053560;28;19927;-67
2023/01/06 06:18:09;;;;;;;;;;;10.60;99.90;;;;;;5073489;28;20027;-67
2023/01/06 06:20:37;;;;;;;;;;;10.60;99.90;;;;;;5072735;28;19974;-66
2023/01/06 06:23:06;;;;;;;;;;;10.40;99.90;;;;;;5072673;28;20032;-67
2023/01/06 06:25:34;;;;;;;;;;;10.50;99.90;;;;;;5072813;28;19940;-67
2023/01/06 06:28:01;;;;;;;;;;;10.50;99.90;;;;;;5073285;28;19920;-66
2023/01/06 06:30:29;;;;;;;;;;;10.50;99.90;;;;;;5072715;28;19920;-66
2023/01/06 06:32:57;;;;;;;;;;;10.50;99.90;;;;;;5072999;28;19920;-66
2023/01/06 06:35:25;;;;;;;;;;;10.50;99.90;;;;;;5073230;28;19925;-67
2023/01/06 06:37:53;;;;;;;;;;;10.60;99.90;;;;;;5072934;28;19920;-66
2023/01/06 06:40:22;;;;;;;;;;;10.50;99.90;;;;;;5063528;28;19928;-67
2023/01/06 06:42:50;;;;;;;;;;;10.40;99.90;;;;;;5072499;28;19921;-67
2023/01/06 06:45:18;;;;;;;;;;;10.30;99.90;;;;;;5072522;28;19924;-67
2023/01/06 06:47:46;;;;;;;;;;;10.30;99.90;;;;;;5073150;28;19921;-66
2023/01/06 06:50:14;;;;;;;;;;;10.20;99.90;;;;;;5072135;28;20038;-67
2023/01/06 06:52:41;;;;;;;;;;;10.30;99.90;;;;;;5072742;28;20404;-66
2023/01/06 06:55:09;;;;;;;;;;;10.20;99.90;;;;;;5071230;28;20720;-66
2023/01/06 06:57:38;;;;;;;;;;;10.20;99.90;;;;;;5071330;28;20020;-66
2023/01/06 07:00:06;;;;;;;;;;;10.10;99.90;;;;;;5072171;28;19920;-66
2023/01/06 07:02:34;;;;;;;;;;;10.10;99.90;;;;;;5072881;28;20480;-66
2023/01/06 07:05:03;;;;;;;;;;;10.10;99.90;;;;;;5072643;28;19974;-66
2023/01/06 07:07:31;;;;;;;;;;;10.10;99.90;;;;;;5072365;28;20027;-66
2023/01/06 07:09:58;;;;;;;;;;;10.00;99.90;;;;;;5065427;28;19978;-66
2023/01/06 07:12:26;;;;;;;;;;;10.00;99.90;;;;;;5067140;28;19920;-66
2023/01/06 07:14:55;;;;;;;;;;;10.00;99.90;;;;;;5072578;28;19921;-67
2023/01/06 07:17:25;;;;;;;;;;;10.00;99.90;;;;;;5072661;28;19920;-66
2023/01/06 07:19:53;;;;;;;;;;;9.90;99.90;;;;;;5071742;28;19921;-66
2023/01/06 07:22:20;;;;;;;;;;;9.80;99.90;;;;;;5072230;28;19994;-66
2023/01/06 07:24:48;;;;;;;;;;;9.70;99.90;;;;;;5072114;28;19920;-66
2023/01/06 07:27:16;;;;;;;;;;;9.60;99.90;;;;;;5072205;28;19946;-66
2023/01/06 07:29:44;;;;;;;;;;;9.60;99.90;;;;;;5071607;28;20024;-67
2023/01/06 07:32:13;;;;;;;;;;;9.60;99.90;;;;;;5075763;28;19927;-67
2023/01/06 07:34:40;;;;;;;;;;;9.60;99.90;;;;;;5068232;28;19939;-67
2023/01/06 07:37:08;;;;;;;;;;;9.60;99.90;;;;;;5070446;28;19974;-67
2023/01/06 07:39:38;;;;;;;;;;;9.50;99.90;;;;;;5068211;28;20361;-67
2023/01/06 07:42:08;;;;;;;;;;;9.50;99.90;;;;;;5072035;28;20288;-67
2023/01/06 07:44:35;;;;;;;;;;;9.50;99.90;;;;;;5072079;28;19924;-67
2023/01/06 07:47:05;;;;;;;;;;;9.50;99.90;;;;;;5072124;28;20015;-67
2023/01/06 07:49:34;;;;;;;;;;;9.50;99.90;;;;;;5071345;28;19962;-67
2023/01/06 07:52:02;;;;;;;;;;;9.50;99.90;;;;;;5071868;28;19920;-67
2023/01/06 07:54:30;;;;;;;;;;;9.60;99.90;;;;;;5071610;28;19924;-67
2023/01/06 07:56:57;;;;;;;;;;;9.60;99.90;;;;;;5071917;28;20292;-67
2023/01/06 07:59:25;;;;;;;;;;;9.60;99.90;;;;;;5071925;28;19920;-67
2023/01/06 08:01:53;;;;;;;;;;;9.60;99.90;;;;;;5071174;28;19959;-67
2023/01/06 08:04:20;;;;;;;;;;;9.60;99.90;;;;;;5071308;28;19927;-67
2023/01/06 08:06:50;;;;;;;;;;;9.60;99.90;;;;;;5058557;28;20025;-67
2023/01/06 08:09:17;;;;;;;;;;;9.60;99.90;;;;;;5054270;28;19924;-67
2023/01/06 08:11:45;;;;;;;;;;;9.60;99.90;;;;;;5070470;28;19920;-67
2023/01/06 08:14:13;;;;;;;;;;;9.70;99.90;;;;;;5071814;28;19932;-67
2023/01/06 08:16:40;;;;;;;;;;;9.70;99.90;;;;;;5071370;28;19943;-67
2023/01/06 08:19:08;;;;;;;;;;;9.70;99.90;;;;;;5071584;28;19963;-67
2023/01/06 08:21:36;;;;;;;;;;;9.70;99.90;;;;;;5070959;28;20440;-67
2023/01/06 08:24:05;;;;;;;;;;;9.80;99.90;;;;;;5071698;28;20293;-67
2023/01/06 08:26:33;;;;;;;;;;;9.90;99.90;;;;;;5079336;28;20027;-67
2023/01/06 08:29:01;;;;;;;;;;;9.80;99.90;;;;;;5086569;28;19928;-67
2023/01/06 08:31:28;;;;;;;;;;;9.80;99.90;;;;;;5091116;28;20042;-67
2023/01/06 08:33:56;;;;;;;;;;;9.90;99.90;;;;;;5080894;28;19927;-67
2023/01/06 08:36:25;;;;;;;;;;;9.90;99.90;;;;;;5061424;28;19967;-67
2023/01/06 08:38:53;;;;;;;;;;;9.90;99.90;;;;;;5051518;28;20385;-67
2023/01/06 08:41:22;;;;;;;;;;;10.00;99.90;;;;;;5064204;28;19931;-67
2023/01/06 08:43:49;;;;;;;;;;;10.00;99.90;;;;;;5053039;28;20433;-67
2023/01/06 08:46:18;;;;;;;;;;;10.00;99.90;;;;;;5051368;28;20034;-67
2023/01/06 08:48:47;;;;;;;;;;;10.10;99.90;;;;;;5051109;28;20015;-67
2023/01/06 08:51:16;;;;;;;;;;;10.00;99.90;;;;;;5050740;28;20062;-67
2023/01/06 08:53:44;;;;;;;;;;;10.10;99.90;;;;;;5051231;28;20019;-67
2023/01/06 08:56:13;;;;;;;;;;;10.10;99.90;;;;;;5062717;28;20007;-67
2023/01/06 08:58:42;;;;;;;;;;;10.10;99.90;;;;;;5070942;28;19930;-67
2023/01/06 09:01:15;;;;;;;;;;;10.10;99.90;;;;;;5070626;28;20019;-67
2023/01/06 09:03:43;;;;;;;;;;;10.10;99.90;;;;;;5070976;28;20468;-67
2023/01/06 09:06:10;;;;;;;;;;;10.10;99.90;;;;;;5062891;28;19924;-67
2023/01/06 09:08:38;;;;;;;;;;;10.20;99.90;;;;;;5051152;28;20360;-67
2023/01/06 09:11:06;;;;;;;;;;;10.20;99.90;;;;;;5052478;28;19920;-67
2023/01/06 09:13:34;;;;;;;;;;;10.20;99.90;;;;;;5071232;28;19934;-67
2023/01/06 09:16:06;;;;;;;;;;;10.20;99.90;;;;;;5071144;28;19951;-68
2023/01/06 09:18:33;;;;;;;;;;;10.20;99.90;;;;;;5071107;28;19963;-67
2023/01/06 09:21:01;;;;;;;;;;;10.20;99.90;;;;;;5070295;28;20449;-67
2023/01/06 09:23:29;;;;;;;;;;;10.20;99.90;;;;;;5074568;28;19931;-67
2023/01/06 09:25:58;;;;;;;;;;;10.30;99.90;;;;;;5074260;28;19927;-67
2023/01/06 09:28:26;;;;;;;;;;;10.30;99.90;;;;;;5074671;28;19974;-67
2023/01/06 09:30:53;;;;;;;;;;;10.30;99.90;;;;;;5074022;28;20017;-67
2023/01/06 09:33:22;;;;;;;;;;;10.30;99.90;;;;;;5074233;28;19927;-67
2023/01/06 09:35:52;;;;;;;;;;;10.30;99.90;;;;;;5068790;28;20382;-67
2023/01/06 09:38:20;;;;;;;;;;;10.30;99.90;;;;;;5054400;28;19921;-67
2023/01/06 09:40:54;;;;;;;;;;;10.40;99.90;;;;;;5064420;28;20007;-67
2023/01/06 09:43:26;;;;;;;;;;;10.40;99.90;;;;;;5073688;28;20007;-67
2023/01/06 09:45:56;;;;;;;;;;;10.40;99.90;;;;;;5074366;28;20397;-67
2023/01/06 09:48:28;;;;;;;;;;;10.40;99.90;;;;;;5073927;28;19931;-68
2023/01/06 09:50:57;;;;;;;;;;;10.40;99.90;;;;;;5073764;28;20372;-67
2023/01/06 09:53:28;;;;;;;;;;;10.40;99.90;;;;;;5074296;28;19920;-67
2023/01/06 09:55:59;;;;;;;;;;;10.50;99.90;;;;;;5073575;28;20397;-67
2023/01/06 09:58:28;;;;;;;;;;;10.40;99.90;;;;;;5073874;28;20397;-67
2023/01/06 10:00:56;;;;;;;;;;;10.50;99.90;;;;;;5073411;28;20399;-68
2023/01/06 10:03:26;;;;;;;;;;;10.50;99.90;;;;;;5073978;28;19955;-67
2023/01/06 10:05:59;;;;;;;;;;;10.50;99.90;;;;;;5068204;28;19921;-67
2023/01/06 10:08:34;;;;;;;;;;;10.50;99.90;;;;;;5053962;28;19920;-67
2023/01/06 10:11:10;;;;;;;;;;;10.50;99.90;;;;;;5066853;28;19952;-67
2023/01/06 10:13:44;;;;;;;;;;;10.50;99.90;;;;;;5073772;28;20377;-68
2023/01/06 10:16:16;;;;;;;;;;;10.50;99.90;;;;;;5073989;28;19966;-67
2023/01/06 10:18:49;;;;;;;;;;;10.60;99.90;;;;;;5073649;28;19925;-68
2023/01/06 10:21:22;;;;;;;;;;;10.60;99.90;;;;;;5072970;28;20023;-68
2023/01/06 10:24:01;;;;;;;;;;;10.60;99.90;;;;;;5073615;28;20452;-67
2023/01/06 10:26:29;;;;;;;;;;;10.60;99.90;;;;;;5072841;28;20015;-67
2023/01/06 10:29:01;;;;;;;;;;;10.60;99.90;;;;;;5073524;28;19982;-67
2023/01/06 10:31:33;;;;;;;;;;;10.70;99.90;;;;;;5072842;28;19920;-67
2023/01/06 10:34:03;;;;;;;;;;;10.70;99.90;;;;;;5072630;28;19931;-67
2023/01/06 10:36:32;;;;;;;;;;;10.80;99.90;;;;;;5062451;28;20020;-67
2023/01/06 10:39:01;;;;;;;;;;;10.80;99.90;;;;;;5070755;28;20353;-67
2023/01/06 10:41:37;;;;;;;;;;;10.80;99.90;;;;;;5072580;28;20373;-67
2023/01/06 10:44:06;;;;;;;;;;;10.90;99.90;;;;;;5073017;28;19920;-67
2023/01/06 10:46:35;;;;;;;;;;;11.00;99.90;;;;;;5073082;28;19920;-68
2023/01/06 10:49:05;;;;;;;;;;;11.10;99.90;;;;;;5072784;28;19927;-67
2023/01/06 10:51:35;;;;;;;;;;;11.30;99.90;;;;;;5072385;28;20381;-67
2023/01/06 10:54:05;;;;;;;;;;;11.40;99.90;;;;;;5072214;28;19920;-67
2023/01/06 10:56:34;;;;;;;;;;;11.50;99.90;;;;;;5073299;28;20376;-67
2023/01/06 10:59:05;;;;;;;;;;;11.50;99.90;;;;;;5072636;28;19921;-67
2023/01/06 11:01:33;;;;;;;;;;;11.40;99.90;;;;;;5072248;28;19929;-68
2023/01/06 11:04:08;;;;;;;;;;;11.50;99.90;;;;;;5072386;28;20342;-67
2023/01/06 11:06:38;;;;;;;;;;;11.50;99.90;;;;;;5072422;28;19926;-67
2023/01/06 11:09:06;;;;;;;;;;;11.40;99.90;;;;;;5072658;28;20015;-67
2023/01/06 11:11:44;;;;;;;;;;;11.50;99.90;;;;;;5071858;28;20014;-67
2023/01/06 11:14:14;;;;;;;;;;;11.50;99.90;;;;;;5072565;28;19927;-67
2023/01/06 11:16:42;;;;;;;;;;;11.40;99.90;;;;;;5072533;28;20023;-67
2023/01/06 11:19:24;;;;;;;;;;;11.40;99.90;;;;;;5072068;28;19920;-67
2023/01/06 11:21:52;;;;;;;;;;;11.40;99.90;;;;;;5071813;28;19920;-67
2023/01/06 11:24:20;;;;;;;;;;;11.30;99.90;;;;;;5072670;28;20030;-67
2023/01/06 11:26:52;;;;;;;;;;;11.30;99.90;;;;;;5072326;28;20019;-67
2023/01/06 11:29:24;;;;;;;;;;;11.30;99.90;;;;;;5072222;28;19926;-67
2023/01/06 11:31:52;;;;;;;;;;;11.30;99.90;;;;;;5071553;28;19982;-67
2023/01/06 11:34:23;;;;;;;;;;;11.30;99.90;;;;;;5071271;28;20327;-68
2023/01/06 11:36:51;;;;;;;;;;;11.20;99.90;;;;;;5072345;28;20020;-67
2023/01/06 11:39:23;;;;;;;;;;;11.30;99.90;;;;;;5071972;28;20400;-67
2023/01/06 11:41:52;;;;;;;;;;;11.30;99.90;;;;;;5071257;28;19920;-67
2023/01/06 11:44:23;;;;;;;;;;;11.30;99.90;;;;;;5111899;22;19927;-72
2023/01/06 11:46:51;;;;;;;;;;;11.40;99.90;;;;;;5092495;28;20030;-72
2023/01/06 11:49:21;;;;;;;;;;;11.40;99.90;;;;;;5091413;28;20027;-72
2023/01/06 11:51:50;;;;;;;;;;;11.40;99.90;;;;;;5091890;28;20015;-72
2023/01/06 11:54:23;;;;;;;;;;;11.50;99.90;;;;;;5092458;28;19959;-72
2023/01/06 11:56:57;;;;;;;;;;;11.50;99.90;;;;;;5092519;28;20011;-72
2023/01/06 11:59:25;;;;;;;;;;;11.50;99.90;;;;;;5092063;28;20268;-72
2023/01/06 12:01:56;;;;;;;;;;;11.50;99.90;;;;;;5091652;28;19920;-72
2023/01/06 12:04:27;;;;;;;;;;;11.40;99.90;;;;;;5080973;28;20348;-72
2023/01/06 12:07:03;;;;;;;;;;;11.40;99.90;;;;;;5071121;28;21324;-72
2023/01/06 12:09:33;;;;;;;;;;;11.40;99.90;;;;;;5071213;28;20068;-69
2023/01/06 12:12:04;;;;;;;;;;;11.40;99.90;;;;;;5071917;28;20023;-72
2023/01/06 12:14:34;;;;;;;;;;;11.40;99.90;;;;;;5071883;28;20350;-72
2023/01/06 12:17:04;;;;;;;;;;;11.40;99.90;;;;;;5071611;28;20772;-71
2023/01/06 12:19:34;;;;;;;;;;;11.40;99.90;;;;;;5076941;28;20012;-71
2023/01/06 12:22:03;;;;;;;;;;;11.40;99.90;;;;;;5091751;28;20384;-72
2023/01/06 12:24:32;;;;;;;;;;;11.30;99.90;;;;;;5092479;28;20027;-71
2023/01/06 12:27:00;;;;;;;;;;;11.30;99.90;;;;;;5093187;28;20265;-72
2023/01/06 12:29:29;;;;;;;;;;;11.30;99.90;;;;;;5092919;28;19920;-71
2023/01/06 12:32:00;;;;;;;;;;;11.30;99.90;;;;;;5091526;28;19926;-72
2023/01/06 12:34:30;;;;;;;;;;;11.30;99.90;;;;;;5078611;28;20003;-73
2023/01/06 12:37:01;;;;;;;;;;;11.30;99.90;;;;;;5090237;28;20357;-73
2023/01/06 12:39:35;;;;;;;;;;;11.30;99.90;;;;;;5091385;28;19920;-71
2023/01/06 12:42:07;;;;;;;;;;;11.40;99.90;;;;;;5091781;28;19926;-72
2023/01/06 12:44:40;;;;;;;;;;;11.40;99.90;;;;;;5091600;28;19958;-73
2023/01/06 12:47:11;;;;;;;;;;;11.40;99.90;;;;;;5091303;28;19924;-73
2023/01/06 12:49:42;;;;;;;;;;;11.50;99.90;;;;;;5089641;28;19966;-72
2023/01/06 12:52:11;;;;;;;;;;;11.50;99.90;;;;;;5091641;28;19926;-72
2023/01/06 12:54:42;;;;;;;;;;;11.50;99.90;;;;;;5091645;28;19955;-73
2023/01/06 12:57:15;;;;;;;;;;;11.50;99.90;;;;;;5094661;28;20444;-70
2023/01/06 12:59:48;;;;;;;;;;;11.50;99.90;;;;;;5094498;28;19945;-72
2023/01/06 13:02:22;;;;;;;;;;;11.50;99.90;;;;;;5095575;28;19931;-72
2023/01/06 13:05:02;;;;;;;;;;;11.50;99.90;;;;;;5076699;28;19920;-72
2023/01/06 13:07:36;;;;;;;;;;;11.50;99.90;;;;;;5074098;28;19921;-73
2023/01/06 13:10:13;;;;;;;;;;;11.50;99.90;;;;;;5074033;28;19943;-72
2023/01/06 13:12:47;;;;;;;;;;;11.50;99.90;;;;;;5074722;28;19942;-73
2023/01/06 13:15:18;;;;;;;;;;;11.50;99.90;;;;;;5074844;28;19927;-73
2023/01/06 13:17:50;;;;;;;;;;;11.50;99.90;;;;;;5074958;28;19963;-72
2023/01/06 13:20:20;;;;;;;;;;;11.50;99.90;;;;;;5077557;28;19919;-72
2023/01/06 13:22:54;;;;;;;;;;;11.50;99.90;;;;;;5089479;28;19925;-72
2023/01/06 13:25:33;;;;;;;;;;;11.50;99.90;;;;;;5074752;28;19929;-72
2023/01/06 13:28:05;;;;;;;;;;;11.60;99.90;;;;;;5072714;28;19924;-73
2023/01/06 13:30:41;;;;;;;;;;;11.60;99.90;;;;;;5073513;28;21352;-72
2023/01/06 13:33:21;;;;;;;;;;;11.60;99.90;;;;;;5073431;28;20266;-69
2023/01/06 13:35:54;;;;;;;;;;;11.60;99.90;;;;;;5072143;28;19956;-72
2023/01/06 13:38:29;;;;;;;;;;;11.60;99.90;;;;;;5071271;28;19924;-71
2023/01/06 13:41:00;;;;;;;;;;;11.50;99.90;;;;;;5071275;28;20357;-72
2023/01/06 13:43:29;;;;;;;;;;;11.50;99.90;;;;;;5073559;28;19967;-72
2023/01/06 13:45:58;;;;;;;;;;;11.60;99.90;;;;;;5073802;28;19928;-71
2023/01/06 13:48:28;;;;;;;;;;;11.50;99.90;;;;;;5073479;28;20417;-68
2023/01/06 13:50:58;;;;;;;;;;;11.50;99.90;;;;;;5073725;28;20048;-72
2023/01/06 13:53:26;;;;;;;;;;;11.50;99.90;;;;;;5074378;28;19927;-73
2023/01/06 13:56:08;;;;;;;;;;;11.50;99.90;;;;;;5074355;28;19970;-73
2023/01/06 13:58:38;;;;;;;;;;;11.40;99.90;;;;;;5074067;28;19931;-73
2023/01/06 14:01:07;;;;;;;;;;;11.40;99.90;;;;;;5073621;28;20399;-74
2023/01/06 14:03:35;;;;;;;;;;;11.50;99.90;;;;;;5074619;28;19920;-73
2023/01/06 14:06:03;;;;;;;;;;;11.40;99.90;;;;;;5074009;28;20039;-73
2023/01/06 14:08:34;;;;;;;;;;;11.40;99.90;;;;;;5073218;28;20015;-73
2023/01/06 14:11:20;;;;;;;;;;;11.40;99.90;;;;;;5073174;28;19959;-72
2023/01/06 14:13:53;;;;;;;;;;;11.40;99.90;;;;;;5053882;28;19921;-72
2023/01/06 14:16:22;;;;;;;;;;;11.40;99.90;;;;;;5053891;28;19920;-72
2023/01/06 14:18:51;;;;;;;;;;;11.40;99.90;;;;;;5062669;28;19920;-73
2023/01/06 14:21:22;;;;;;;;;;;11.40;99.90;;;;;;5091734;28;19981;-73
2023/01/06 14:23:53;;;;;;;;;;;11.50;99.90;;;;;;5093752;28;19989;-72
2023/01/06 14:26:22;;;;;;;;;;;11.50;99.90;;;;;;5093862;28;19958;-71
2023/01/06 14:28:49;;;;;;;;;;;11.60;99.90;;;;;;5093412;28;19920;-74
2023/01/06 14:31:47;;;;;;;;;;;11.60;99.90;;;;;;5093054;28;20010;-73
2023/01/06 14:34:17;;;;;;;;;;;11.60;99.90;;;;;;5084825;28;19920;-73
2023/01/06 14:36:47;;;;;;;;;;;11.50;99.90;;;;;;5073216;28;20016;-73